sensor_id;sensor_type;location;lat;lon;timestamp;pressure;altitude;pressure_sealevel;temperature;humidity
72118;BME280;59992;47.490;8.736;2023-08-21T00:00:58;97088.13;;;19.81;84.50
72118;BME280;59992;47.490;8.736;2023-08-21T00:03:48;97089.11;;;19.77;85.96
72118;BME280;59992;47.490;8.736;2023-08-21T00:06:39;97088.15;;;19.74;86.78
72118;BME280;59992;47.490;8.736;2023-08-21T00:09:29;97089.92;;;19.73;85.32
72118;BME280;59992;47.490;8.736;2023-08-21T00:12:19;97084.96;;;19.71;84.02
72118;BME280;59992;47.490;8.736;2023-08-21T00:15:10;97082.52;;;19.70;83.42
72118;BME280;59992;47.490;8.736;2023-08-21T00:18:00;97085.47;;;19.68;83.41
72118;BME280;59992;47.490;8.736;2023-08-21T00:20:51;97082.07;;;19.65;83.17
72118;BME280;59992;47.490;8.736;2023-08-21T00:23:41;97087.16;;;19.63;85.57
72118;BME280;59992;47.490;8.736;2023-08-21T00:26:31;97082.02;;;19.56;85.64
72118;BME280;59992;47.490;8.736;2023-08-21T00:29:21;97081.06;;;19.54;86.46
72118;BME280;59992;47.490;8.736;2023-08-21T00:32:12;97084.64;;;19.51;84.47
72118;BME280;59992;47.490;8.736;2023-08-21T00:35:02;97081.23;;;19.46;87.53
72118;BME280;59992;47.490;8.736;2023-08-21T00:37:52;97084.73;;;19.44;86.86
72118;BME280;59992;47.490;8.736;2023-08-21T00:40:42;97074.15;;;19.43;85.01
72118;BME280;59992;47.490;8.736;2023-08-21T00:43:32;97076.17;;;19.41;86.28
72118;BME280;59992;47.490;8.736;2023-08-21T00:46:22;97073.06;;;19.38;86.30
72118;BME280;59992;47.490;8.736;2023-08-21T00:49:13;97073.50;;;19.33;88.68
72118;BME280;59992;47.490;8.736;2023-08-21T00:52:03;97076.65;;;19.31;87.36
72118;BME280;59992;47.490;8.736;2023-08-21T00:54:54;97070.30;;;19.30;86.44
72118;BME280;59992;47.490;8.736;2023-08-21T00:57:45;97067.96;;;19.27;87.20
72118;BME280;59992;47.490;8.736;2023-08-21T01:00:36;97070.13;;;19.25;86.09
72118;BME280;59992;47.490;8.736;2023-08-21T01:03:26;97069.98;;;19.24;85.71
72118;BME280;59992;47.490;8.736;2023-08-21T01:06:16;97072.92;;;19.22;85.50
72118;BME280;59992;47.490;8.736;2023-08-21T01:09:16;97071.41;;;19.20;85.13
72118;BME280;59992;47.490;8.736;2023-08-21T01:12:17;97073.05;;;19.19;85.92
72118;BME280;59992;47.490;8.736;2023-08-21T01:15:13;97075.08;;;19.17;85.99
72118;BME280;59992;47.490;8.736;2023-08-21T01:18:04;97077.95;;;19.15;85.52
72118;BME280;59992;47.490;8.736;2023-08-21T01:20:55;97079.83;;;19.12;85.24
72118;BME280;59992;47.490;8.736;2023-08-21T01:23:47;97084.90;;;19.12;86.77
72118;BME280;59992;47.490;8.736;2023-08-21T01:26:37;97084.75;;;19.10;89.63
72118;BME280;59992;47.490;8.736;2023-08-21T01:29:28;97089.63;;;19.07;87.20
72118;BME280;59992;47.490;8.736;2023-08-21T01:32:26;97091.05;;;19.04;87.38
72118;BME280;59992;47.490;8.736;2023-08-21T01:35:17;97093.55;;;19.00;86.18
72118;BME280;59992;47.490;8.736;2023-08-21T01:38:08;97098.80;;;18.98;86.48
72118;BME280;59992;47.490;8.736;2023-08-21T01:40:58;97100.27;;;18.97;86.72
72118;BME280;59992;47.490;8.736;2023-08-21T01:43:49;97097.70;;;18.94;87.54
72118;BME280;59992;47.490;8.736;2023-08-21T01:46:39;97100.64;;;18.91;88.86
72118;BME280;59992;47.490;8.736;2023-08-21T01:49:30;97099.27;;;18.89;87.92
72118;BME280;59992;47.490;8.736;2023-08-21T01:52:20;97098.61;;;18.87;86.76
72118;BME280;59992;47.490;8.736;2023-08-21T01:55:11;97099.06;;;18.88;86.58
72118;BME280;59992;47.490;8.736;2023-08-21T01:58:01;97098.54;;;18.87;87.61
72118;BME280;59992;47.490;8.736;2023-08-21T02:00:51;97101.09;;;18.85;89.45
72118;BME280;59992;47.490;8.736;2023-08-21T02:03:41;97097.61;;;18.81;91.17
72118;BME280;59992;47.490;8.736;2023-08-21T02:06:31;97100.67;;;18.80;91.66
72118;BME280;59992;47.490;8.736;2023-08-21T02:09:21;97098.84;;;18.79;90.74
72118;BME280;59992;47.490;8.736;2023-08-21T02:12:11;97104.38;;;18.78;88.32
72118;BME280;59992;47.490;8.736;2023-08-21T02:15:02;97102.56;;;18.77;89.57
72118;BME280;59992;47.490;8.736;2023-08-21T02:17:52;97105.80;;;18.76;90.79
72118;BME280;59992;47.490;8.736;2023-08-21T02:20:43;97100.64;;;18.69;89.27
72118;BME280;59992;47.490;8.736;2023-08-21T02:23:34;97106.85;;;18.70;89.64
72118;BME280;59992;47.490;8.736;2023-08-21T02:26:24;97108.48;;;18.68;89.71
72118;BME280;59992;47.490;8.736;2023-08-21T02:29:14;97108.44;;;18.65;88.83
72118;BME280;59992;47.490;8.736;2023-08-21T02:32:04;97108.15;;;18.63;88.27
72118;BME280;59992;47.490;8.736;2023-08-21T02:34:54;97112.00;;;18.62;88.31
72118;BME280;59992;47.490;8.736;2023-08-21T02:37:45;97114.64;;;18.59;88.58
72118;BME280;59992;47.490;8.736;2023-08-21T02:40:36;97112.82;;;18.55;90.74
72118;BME280;59992;47.490;8.736;2023-08-21T02:43:26;97113.86;;;18.51;91.71
72118;BME280;59992;47.490;8.736;2023-08-21T02:46:16;97108.81;;;18.50;91.32
72118;BME280;59992;47.490;8.736;2023-08-21T02:49:06;97108.20;;;18.49;91.13
72118;BME280;59992;47.490;8.736;2023-08-21T02:51:56;97106.69;;;18.48;89.27
72118;BME280;59992;47.490;8.736;2023-08-21T02:54:47;97110.06;;;18.48;88.35
72118;BME280;59992;47.490;8.736;2023-08-21T02:57:37;97109.63;;;18.46;90.06
72118;BME280;59992;47.490;8.736;2023-08-21T03:00:27;97107.33;;;18.43;92.21
72118;BME280;59992;47.490;8.736;2023-08-21T03:03:17;97106.33;;;18.41;90.85
72118;BME280;59992;47.490;8.736;2023-08-21T03:06:07;97101.77;;;18.38;89.71
72118;BME280;59992;47.490;8.736;2023-08-21T03:08:58;97104.31;;;18.35;89.46
72118;BME280;59992;47.490;8.736;2023-08-21T03:11:48;97102.58;;;18.31;90.32
72118;BME280;59992;47.490;8.736;2023-08-21T03:14:38;97103.98;;;18.28;92.33
72118;BME280;59992;47.490;8.736;2023-08-21T03:17:29;97104.69;;;18.28;93.20
72118;BME280;59992;47.490;8.736;2023-08-21T03:20:19;97107.46;;;18.27;91.20
72118;BME280;59992;47.490;8.736;2023-08-21T03:23:09;97103.09;;;18.26;89.35
72118;BME280;59992;47.490;8.736;2023-08-21T03:25:59;97104.17;;;18.25;92.06
72118;BME280;59992;47.490;8.736;2023-08-21T03:28:50;97102.83;;;18.22;91.80
72118;BME280;59992;47.490;8.736;2023-08-21T03:31:40;97104.45;;;18.20;92.10
72118;BME280;59992;47.490;8.736;2023-08-21T03:34:30;97105.99;;;18.18;93.11
72118;BME280;59992;47.490;8.736;2023-08-21T03:37:21;97107.67;;;18.19;91.74
72118;BME280;59992;47.490;8.736;2023-08-21T03:40:12;97106.14;;;18.18;91.95
72118;BME280;59992;47.490;8.736;2023-08-21T03:43:02;97103.30;;;18.18;92.33
72118;BME280;59992;47.490;8.736;2023-08-21T03:45:52;97107.98;;;18.18;91.62
72118;BME280;59992;47.490;8.736;2023-08-21T03:48:43;97105.54;;;18.17;91.47
72118;BME280;59992;47.490;8.736;2023-08-21T03:51:33;97111.45;;;18.17;90.74
72118;BME280;59992;47.490;8.736;2023-08-21T03:54:23;97105.91;;;18.18;91.45
72118;BME280;59992;47.490;8.736;2023-08-21T03:57:13;97105.76;;;18.18;91.43
72118;BME280;59992;47.490;8.736;2023-08-21T04:00:03;97107.45;;;18.19;92.66
72118;BME280;59992;47.490;8.736;2023-08-21T04:02:55;97111.27;;;18.19;93.72
72118;BME280;59992;47.490;8.736;2023-08-21T04:05:46;97114.35;;;18.18;94.35
72118;BME280;59992;47.490;8.736;2023-08-21T04:08:36;97116.89;;;18.17;94.81
72118;BME280;59992;47.490;8.736;2023-08-21T04:11:26;97115.81;;;18.18;93.16
72118;BME280;59992;47.490;8.736;2023-08-21T04:14:17;97107.19;;;18.12;93.98
72118;BME280;59992;47.490;8.736;2023-08-21T04:17:07;97118.05;;;18.17;96.62
72118;BME280;59992;47.490;8.736;2023-08-21T04:19:58;97118.42;;;18.17;95.85
72118;BME280;59992;47.490;8.736;2023-08-21T04:22:48;97124.17;;;18.16;94.52
72118;BME280;59992;47.490;8.736;2023-08-21T04:25:38;97123.87;;;18.16;93.64
72118;BME280;59992;47.490;8.736;2023-08-21T04:28:29;97117.08;;;18.12;93.02
72118;BME280;59992;47.490;8.736;2023-08-21T04:31:19;97122.56;;;18.16;92.78
72118;BME280;59992;47.490;8.736;2023-08-21T04:34:09;97125.25;;;18.16;94.10
72118;BME280;59992;47.490;8.736;2023-08-21T04:37:00;97126.54;;;18.19;95.48
72118;BME280;59992;47.490;8.736;2023-08-21T04:39:54;97131.27;;;18.23;93.28
72118;BME280;59992;47.490;8.736;2023-08-21T04:42:44;97132.23;;;18.26;94.46
72118;BME280;59992;47.490;8.736;2023-08-21T04:45:34;97134.58;;;18.31;92.98
72118;BME280;59992;47.490;8.736;2023-08-21T04:48:26;97133.98;;;18.37;94.07
72118;BME280;59992;47.490;8.736;2023-08-21T04:51:16;97140.85;;;18.43;94.84
72118;BME280;59992;47.490;8.736;2023-08-21T04:54:06;97142.65;;;18.50;93.91
72118;BME280;59992;47.490;8.736;2023-08-21T04:56:57;97142.58;;;18.57;92.99
72118;BME280;59992;47.490;8.736;2023-08-21T04:59:47;97150.54;;;18.68;92.52
72118;BME280;59992;47.490;8.736;2023-08-21T05:02:37;97155.35;;;18.78;91.93
72118;BME280;59992;47.490;8.736;2023-08-21T05:05:27;97156.58;;;18.86;92.39
72118;BME280;59992;47.490;8.736;2023-08-21T05:08:17;97163.13;;;18.98;91.78
72118;BME280;59992;47.490;8.736;2023-08-21T05:11:07;97163.29;;;19.12;91.07
72118;BME280;59992;47.490;8.736;2023-08-21T05:13:58;97165.35;;;19.27;90.27
72118;BME280;59992;47.490;8.736;2023-08-21T05:16:49;97166.27;;;19.42;89.55
72118;BME280;59992;47.490;8.736;2023-08-21T05:19:40;97167.16;;;19.57;89.26
72118;BME280;59992;47.490;8.736;2023-08-21T05:22:30;97174.27;;;19.72;88.73
72118;BME280;59992;47.490;8.736;2023-08-21T05:25:21;97171.98;;;19.88;88.76
72118;BME280;59992;47.490;8.736;2023-08-21T05:28:11;97169.81;;;20.05;87.87
72118;BME280;59992;47.490;8.736;2023-08-21T05:31:02;97165.56;;;20.17;87.03
72118;BME280;59992;47.490;8.736;2023-08-21T05:33:53;97174.16;;;20.38;86.29
72118;BME280;59992;47.490;8.736;2023-08-21T05:36:44;97179.94;;;20.53;85.48
72118;BME280;59992;47.490;8.736;2023-08-21T05:39:34;97180.38;;;20.68;85.16
72118;BME280;59992;47.490;8.736;2023-08-21T05:42:24;97188.02;;;20.81;84.89
72118;BME280;59992;47.490;8.736;2023-08-21T05:45:14;97188.16;;;20.90;83.92
72118;BME280;59992;47.490;8.736;2023-08-21T05:48:05;97183.70;;;20.99;82.77
72118;BME280;59992;47.490;8.736;2023-08-21T05:50:55;97186.83;;;21.39;81.83
72118;BME280;59992;47.490;8.736;2023-08-21T05:53:46;97185.01;;;21.79;81.36
72118;BME280;59992;47.490;8.736;2023-08-21T05:56:36;97186.14;;;22.12;81.69
72118;BME280;59992;47.490;8.736;2023-08-21T05:59:31;97191.09;;;22.34;80.66
72118;BME280;59992;47.490;8.736;2023-08-21T06:02:22;97187.61;;;22.95;78.19
72118;BME280;59992;47.490;8.736;2023-08-21T06:05:12;97193.15;;;23.81;74.35
72118;BME280;59992;47.490;8.736;2023-08-21T06:08:03;97190.89;;;24.70;71.82
72118;BME280;59992;47.490;8.736;2023-08-21T06:10:54;97194.02;;;25.59;68.12
72118;BME280;59992;47.490;8.736;2023-08-21T06:13:44;97192.32;;;26.49;63.24
72118;BME280;59992;47.490;8.736;2023-08-21T06:16:34;97190.74;;;27.33;62.67
72118;BME280;59992;47.490;8.736;2023-08-21T06:19:25;97192.42;;;28.01;54.46
72118;BME280;59992;47.490;8.736;2023-08-21T06:22:15;97193.42;;;28.37;52.99
72118;BME280;59992;47.490;8.736;2023-08-21T06:25:07;97197.30;;;28.72;52.10
72118;BME280;59992;47.490;8.736;2023-08-21T06:27:57;97198.91;;;29.07;51.52
72118;BME280;59992;47.490;8.736;2023-08-21T06:30:47;97205.75;;;29.41;50.16
72118;BME280;59992;47.490;8.736;2023-08-21T06:33:38;97203.15;;;29.73;48.63
72118;BME280;59992;47.490;8.736;2023-08-21T06:36:28;97209.94;;;30.35;51.84
72118;BME280;59992;47.490;8.736;2023-08-21T06:39:18;97214.47;;;30.95;46.59
72118;BME280;59992;47.490;8.736;2023-08-21T06:42:08;97214.93;;;31.34;45.22
72118;BME280;59992;47.490;8.736;2023-08-21T06:44:59;97214.08;;;31.70;43.82
72118;BME280;59992;47.490;8.736;2023-08-21T06:47:49;97208.51;;;31.97;43.43
72118;BME280;59992;47.490;8.736;2023-08-21T06:50:40;97206.05;;;32.01;43.26
72118;BME280;59992;47.490;8.736;2023-08-21T06:53:30;97214.23;;;32.33;46.72
72118;BME280;59992;47.490;8.736;2023-08-21T06:56:20;97217.14;;;32.82;46.46
72118;BME280;59992;47.490;8.736;2023-08-21T06:59:11;97215.17;;;33.20;43.64
72118;BME280;59992;47.490;8.736;2023-08-21T07:02:01;97213.70;;;33.43;41.23
72118;BME280;59992;47.490;8.736;2023-08-21T07:04:51;97213.42;;;33.50;41.60
72118;BME280;59992;47.490;8.736;2023-08-21T07:07:41;97214.57;;;33.75;41.69
72118;BME280;59992;47.490;8.736;2023-08-21T07:10:32;97213.77;;;33.91;39.75
72118;BME280;59992;47.490;8.736;2023-08-21T07:13:25;97214.29;;;33.89;38.24
72118;BME280;59992;47.490;8.736;2023-08-21T07:16:15;97215.67;;;34.03;41.38
72118;BME280;59992;47.490;8.736;2023-08-21T07:19:05;97214.15;;;34.30;39.15
72118;BME280;59992;47.490;8.736;2023-08-21T07:21:56;97216.81;;;34.12;38.05
72118;BME280;59992;47.490;8.736;2023-08-21T07:24:46;97213.40;;;34.26;39.02
72118;BME280;59992;47.490;8.736;2023-08-21T07:27:37;97212.44;;;34.25;39.53
72118;BME280;59992;47.490;8.736;2023-08-21T07:30:27;97214.85;;;34.23;37.96
72118;BME280;59992;47.490;8.736;2023-08-21T07:33:17;97219.10;;;34.17;39.98
72118;BME280;59992;47.490;8.736;2023-08-21T07:36:08;97217.96;;;34.04;39.06
72118;BME280;59992;47.490;8.736;2023-08-21T07:39:03;97218.22;;;34.05;39.26
72118;BME280;59992;47.490;8.736;2023-08-21T07:41:54;97214.15;;;34.27;38.65
72118;BME280;59992;47.490;8.736;2023-08-21T07:44:45;97214.97;;;34.08;37.76
72118;BME280;59992;47.490;8.736;2023-08-21T07:47:35;97214.65;;;34.30;37.80
72118;BME280;59992;47.490;8.736;2023-08-21T07:50:25;97214.10;;;34.25;37.63
72118;BME280;59992;47.490;8.736;2023-08-21T07:53:16;97212.00;;;34.26;38.49
72118;BME280;59992;47.490;8.736;2023-08-21T07:56:06;97215.55;;;34.30;39.30
72118;BME280;59992;47.490;8.736;2023-08-21T07:58:57;97209.27;;;34.44;39.46
72118;BME280;59992;47.490;8.736;2023-08-21T08:01:47;97210.04;;;34.13;39.48
72118;BME280;59992;47.490;8.736;2023-08-21T08:04:38;97204.46;;;34.42;39.11
72118;BME280;59992;47.490;8.736;2023-08-21T08:07:28;97208.84;;;34.84;39.37
72118;BME280;59992;47.490;8.736;2023-08-21T08:10:18;97206.06;;;35.11;38.44
72118;BME280;59992;47.490;8.736;2023-08-21T08:13:08;97205.84;;;35.02;38.16
72118;BME280;59992;47.490;8.736;2023-08-21T08:15:59;97203.71;;;35.18;38.46
72118;BME280;59992;47.490;8.736;2023-08-21T08:18:49;97198.02;;;35.32;37.50
72118;BME280;59992;47.490;8.736;2023-08-21T08:21:39;97200.15;;;35.10;38.12
72118;BME280;59992;47.490;8.736;2023-08-21T08:24:29;97202.20;;;34.78;38.13
72118;BME280;59992;47.490;8.736;2023-08-21T08:27:19;97201.76;;;34.56;38.81
72118;BME280;59992;47.490;8.736;2023-08-21T08:30:10;97204.17;;;34.93;38.49
72118;BME280;59992;47.490;8.736;2023-08-21T08:33:01;97203.23;;;35.24;38.20
72118;BME280;59992;47.490;8.736;2023-08-21T08:35:51;97202.52;;;35.47;37.74
72118;BME280;59992;47.490;8.736;2023-08-21T08:38:41;97198.86;;;35.58;37.35
72118;BME280;59992;47.490;8.736;2023-08-21T08:41:41;97201.70;;;35.81;37.21
72118;BME280;59992;47.490;8.736;2023-08-21T08:44:35;97199.25;;;35.88;36.79
72118;BME280;59992;47.490;8.736;2023-08-21T08:47:27;97198.83;;;36.05;36.29
72118;BME280;59992;47.490;8.736;2023-08-21T08:50:18;97200.77;;;36.13;35.90
72118;BME280;59992;47.490;8.736;2023-08-21T08:53:09;97199.58;;;36.11;35.40
72118;BME280;59992;47.490;8.736;2023-08-21T08:56:00;97197.91;;;36.18;35.89
72118;BME280;59992;47.490;8.736;2023-08-21T08:58:50;97198.28;;;36.22;35.43
72118;BME280;59992;47.490;8.736;2023-08-21T09:01:41;97192.30;;;36.17;35.55
72118;BME280;59992;47.490;8.736;2023-08-21T09:04:31;97188.20;;;35.96;36.27
72118;BME280;59992;47.490;8.736;2023-08-21T09:07:21;97189.98;;;36.11;35.79
72118;BME280;59992;47.490;8.736;2023-08-21T09:10:15;97185.55;;;36.13;36.10
72118;BME280;59992;47.490;8.736;2023-08-21T09:13:12;97187.50;;;35.76;36.66
72118;BME280;59992;47.490;8.736;2023-08-21T09:16:03;97182.27;;;35.69;36.04
72118;BME280;59992;47.490;8.736;2023-08-21T09:18:56;97184.06;;;35.48;36.63
72118;BME280;59992;47.490;8.736;2023-08-21T09:21:49;97184.08;;;35.37;36.78
72118;BME280;59992;47.490;8.736;2023-08-21T09:24:40;97178.59;;;35.50;36.33
72118;BME280;59992;47.490;8.736;2023-08-21T09:27:30;97177.45;;;35.55;36.64
72118;BME280;59992;47.490;8.736;2023-08-21T09:30:20;97174.67;;;35.31;36.56
72118;BME280;59992;47.490;8.736;2023-08-21T09:33:10;97174.70;;;34.99;36.75
72118;BME280;59992;47.490;8.736;2023-08-21T09:36:00;97170.16;;;35.02;37.26
72118;BME280;59992;47.490;8.736;2023-08-21T09:38:53;97166.34;;;34.75;38.41
72118;BME280;59992;47.490;8.736;2023-08-21T09:41:56;97161.94;;;34.27;38.79
72118;BME280;59992;47.490;8.736;2023-08-21T09:44:46;97161.64;;;34.29;38.84
72118;BME280;59992;47.490;8.736;2023-08-21T09:47:39;97156.10;;;34.12;38.53
72118;BME280;59992;47.490;8.736;2023-08-21T09:50:31;97155.86;;;33.96;39.11
72118;BME280;59992;47.490;8.736;2023-08-21T09:53:23;97150.18;;;33.89;39.12
72118;BME280;59992;47.490;8.736;2023-08-21T09:56:13;97153.45;;;33.73;40.02
72118;BME280;59992;47.490;8.736;2023-08-21T09:59:04;97152.35;;;33.65;39.68
72118;BME280;59992;47.490;8.736;2023-08-21T10:01:55;97148.92;;;33.51;40.13
72118;BME280;59992;47.490;8.736;2023-08-21T10:04:49;97146.14;;;33.41;40.30
72118;BME280;59992;47.490;8.736;2023-08-21T10:07:40;97144.00;;;33.43;40.22
72118;BME280;59992;47.490;8.736;2023-08-21T10:10:32;97139.68;;;33.32;40.29
72118;BME280;59992;47.490;8.736;2023-08-21T10:13:22;97142.44;;;33.35;39.61
72118;BME280;59992;47.490;8.736;2023-08-21T10:16:12;97142.16;;;33.26;40.09
72118;BME280;59992;47.490;8.736;2023-08-21T10:19:05;97139.02;;;33.23;40.23
72118;BME280;59992;47.490;8.736;2023-08-21T10:21:56;97139.73;;;33.25;39.92
72118;BME280;59992;47.490;8.736;2023-08-21T10:24:48;97139.63;;;33.26;39.42
72118;BME280;59992;47.490;8.736;2023-08-21T10:27:39;97135.77;;;33.20;39.50
72118;BME280;59992;47.490;8.736;2023-08-21T10:30:31;97137.36;;;33.21;40.32
72118;BME280;59992;47.490;8.736;2023-08-21T10:33:47;97132.76;;;33.17;39.75
72118;BME280;59992;47.490;8.736;2023-08-21T10:37:01;97129.95;;;33.09;39.62
72118;BME280;59992;47.490;8.736;2023-08-21T10:39:57;97130.58;;;32.93;39.64
72118;BME280;59992;47.490;8.736;2023-08-21T10:42:47;97125.98;;;32.80;39.66
72118;BME280;59992;47.490;8.736;2023-08-21T10:45:54;97127.48;;;32.79;39.97
72118;BME280;59992;47.490;8.736;2023-08-21T10:48:45;97121.45;;;32.73;39.43
72118;BME280;59992;47.490;8.736;2023-08-21T10:51:36;97123.42;;;32.64;39.32
72118;BME280;59992;47.490;8.736;2023-08-21T10:54:26;97121.75;;;32.60;40.33
72118;BME280;59992;47.490;8.736;2023-08-21T10:57:17;97123.65;;;32.60;39.76
72118;BME280;59992;47.490;8.736;2023-08-21T11:00:09;97116.46;;;32.59;39.60
72118;BME280;59992;47.490;8.736;2023-08-21T11:03:00;97113.31;;;32.58;39.51
72118;BME280;59992;47.490;8.736;2023-08-21T11:06:03;97115.59;;;32.53;38.35
72118;BME280;59992;47.490;8.736;2023-08-21T11:08:54;97117.05;;;32.47;38.12
72118;BME280;59992;47.490;8.736;2023-08-21T11:11:45;97117.25;;;32.47;38.36
72118;BME280;59992;47.490;8.736;2023-08-21T11:14:36;97113.77;;;32.48;37.75
72118;BME280;59992;47.490;8.736;2023-08-21T11:17:27;97115.59;;;32.45;37.62
72118;BME280;59992;47.490;8.736;2023-08-21T11:20:18;97110.95;;;32.40;38.18
72118;BME280;59992;47.490;8.736;2023-08-21T11:23:08;97107.19;;;32.33;38.32
72118;BME280;59992;47.490;8.736;2023-08-21T11:25:58;97108.96;;;32.32;38.69
72118;BME280;59992;47.490;8.736;2023-08-21T11:28:49;97104.63;;;32.32;40.15
72118;BME280;59992;47.490;8.736;2023-08-21T11:31:40;97101.17;;;32.33;39.64
72118;BME280;59992;47.490;8.736;2023-08-21T11:34:31;97102.46;;;32.39;40.72
72118;BME280;59992;47.490;8.736;2023-08-21T11:37:23;97098.56;;;32.37;39.34
72118;BME280;59992;47.490;8.736;2023-08-21T11:40:14;97092.17;;;32.37;40.90
72118;BME280;59992;47.490;8.736;2023-08-21T11:43:05;97091.08;;;32.37;40.08
72118;BME280;59992;47.490;8.736;2023-08-21T11:45:56;97091.20;;;32.41;41.64
72118;BME280;59992;47.490;8.736;2023-08-21T11:48:47;97085.48;;;32.44;39.83
72118;BME280;59992;47.490;8.736;2023-08-21T11:51:40;97084.91;;;32.42;39.80
72118;BME280;59992;47.490;8.736;2023-08-21T11:54:35;97085.21;;;32.42;39.70
72118;BME280;59992;47.490;8.736;2023-08-21T11:57:25;97082.29;;;32.44;40.25
72118;BME280;59992;47.490;8.736;2023-08-21T12:00:17;97080.56;;;32.46;38.57
72118;BME280;59992;47.490;8.736;2023-08-21T12:03:11;97079.54;;;32.51;37.95
72118;BME280;59992;47.490;8.736;2023-08-21T12:06:08;97079.23;;;32.57;37.52
72118;BME280;59992;47.490;8.736;2023-08-21T12:08:59;97070.88;;;32.57;36.66
72118;BME280;59992;47.490;8.736;2023-08-21T12:11:50;97070.34;;;32.62;36.60
72118;BME280;59992;47.490;8.736;2023-08-21T12:14:40;97064.77;;;32.67;37.48
72118;BME280;59992;47.490;8.736;2023-08-21T12:17:30;97062.69;;;32.75;37.20
72118;BME280;59992;47.490;8.736;2023-08-21T12:20:20;97062.99;;;32.77;37.48
72118;BME280;59992;47.490;8.736;2023-08-21T12:23:11;97058.02;;;32.78;36.99
72118;BME280;59992;47.490;8.736;2023-08-21T12:26:02;97056.67;;;32.82;37.31
72118;BME280;59992;47.490;8.736;2023-08-21T12:28:52;97057.13;;;32.85;37.25
72118;BME280;59992;47.490;8.736;2023-08-21T12:31:42;97051.59;;;32.88;37.14
72118;BME280;59992;47.490;8.736;2023-08-21T12:34:33;97045.58;;;32.96;37.41
72118;BME280;59992;47.490;8.736;2023-08-21T12:37:23;97045.29;;;33.01;37.99
72118;BME280;59992;47.490;8.736;2023-08-21T12:40:14;97041.15;;;33.06;39.12
72118;BME280;59992;47.490;8.736;2023-08-21T12:43:05;97036.86;;;33.08;39.29
72118;BME280;59992;47.490;8.736;2023-08-21T12:45:56;97034.21;;;33.15;39.78
72118;BME280;59992;47.490;8.736;2023-08-21T12:48:46;97031.92;;;33.17;39.88
72118;BME280;59992;47.490;8.736;2023-08-21T12:51:37;97028.58;;;33.14;37.29
72118;BME280;59992;47.490;8.736;2023-08-21T12:54:28;97025.91;;;33.13;37.44
72118;BME280;59992;47.490;8.736;2023-08-21T12:57:18;97027.58;;;33.18;37.76
72118;BME280;59992;47.490;8.736;2023-08-21T13:00:11;97027.38;;;33.18;37.87
72118;BME280;59992;47.490;8.736;2023-08-21T13:03:01;97029.82;;;33.20;38.54
72118;BME280;59992;47.490;8.736;2023-08-21T13:05:52;97025.73;;;33.27;38.26
72118;BME280;59992;47.490;8.736;2023-08-21T13:08:42;97025.23;;;33.33;38.00
72118;BME280;59992;47.490;8.736;2023-08-21T13:11:32;97022.71;;;33.37;36.29
72118;BME280;59992;47.490;8.736;2023-08-21T13:14:22;97022.52;;;33.40;36.37
72118;BME280;59992;47.490;8.736;2023-08-21T13:17:13;97019.13;;;33.43;36.94
72118;BME280;59992;47.490;8.736;2023-08-21T13:20:04;97017.48;;;33.42;36.00
72118;BME280;59992;47.490;8.736;2023-08-21T13:22:54;97011.77;;;33.45;36.32
72118;BME280;59992;47.490;8.736;2023-08-21T13:25:44;97010.55;;;33.48;36.62
72118;BME280;59992;47.490;8.736;2023-08-21T13:28:34;97006.34;;;33.52;36.25
72118;BME280;59992;47.490;8.736;2023-08-21T13:31:24;97004.30;;;33.54;36.84
72118;BME280;59992;47.490;8.736;2023-08-21T13:34:15;97004.99;;;33.58;36.12
72118;BME280;59992;47.490;8.736;2023-08-21T13:37:06;96998.33;;;33.62;35.98
72118;BME280;59992;47.490;8.736;2023-08-21T13:39:56;96996.07;;;33.67;36.21
72118;BME280;59992;47.490;8.736;2023-08-21T13:42:49;96993.02;;;33.70;36.15
72118;BME280;59992;47.490;8.736;2023-08-21T13:45:39;96989.61;;;33.74;36.01
72118;BME280;59992;47.490;8.736;2023-08-21T13:48:29;96984.89;;;33.77;35.50
72118;BME280;59992;47.490;8.736;2023-08-21T13:51:20;96985.03;;;33.82;36.64
72118;BME280;59992;47.490;8.736;2023-08-21T13:54:10;96980.83;;;33.83;37.33
72118;BME280;59992;47.490;8.736;2023-08-21T13:57:01;96976.13;;;33.79;36.51
72118;BME280;59992;47.490;8.736;2023-08-21T13:59:51;96973.98;;;33.75;36.73
72118;BME280;59992;47.490;8.736;2023-08-21T14:02:42;96973.81;;;33.71;36.66
72118;BME280;59992;47.490;8.736;2023-08-21T14:05:33;96971.83;;;33.65;37.55
72118;BME280;59992;47.490;8.736;2023-08-21T14:08:23;96970.66;;;33.63;35.22
72118;BME280;59992;47.490;8.736;2023-08-21T14:11:13;96967.61;;;33.67;35.88
72118;BME280;59992;47.490;8.736;2023-08-21T14:14:04;96966.66;;;33.68;35.86
72118;BME280;59992;47.490;8.736;2023-08-21T14:16:54;96965.12;;;33.63;34.68
72118;BME280;59992;47.490;8.736;2023-08-21T14:19:45;96962.48;;;33.62;35.56
72118;BME280;59992;47.490;8.736;2023-08-21T14:22:35;96954.73;;;33.61;35.84
72118;BME280;59992;47.490;8.736;2023-08-21T14:25:25;96956.41;;;33.63;36.51
72118;BME280;59992;47.490;8.736;2023-08-21T14:28:16;96954.36;;;33.67;35.19
72118;BME280;59992;47.490;8.736;2023-08-21T14:31:06;96955.80;;;33.72;35.54
72118;BME280;59992;47.490;8.736;2023-08-21T14:33:56;96958.23;;;33.77;38.19
72118;BME280;59992;47.490;8.736;2023-08-21T14:36:47;96955.14;;;33.76;37.74
72118;BME280;59992;47.490;8.736;2023-08-21T14:39:37;96949.35;;;33.72;33.46
72118;BME280;59992;47.490;8.736;2023-08-21T14:42:28;96949.04;;;33.74;33.52
72118;BME280;59992;47.490;8.736;2023-08-21T14:45:18;96948.67;;;33.77;32.92
72118;BME280;59992;47.490;8.736;2023-08-21T14:48:09;96945.96;;;33.83;32.09
72118;BME280;59992;47.490;8.736;2023-08-21T14:50:59;96948.00;;;33.86;33.07
72118;BME280;59992;47.490;8.736;2023-08-21T14:53:49;96948.75;;;33.88;33.57
72118;BME280;59992;47.490;8.736;2023-08-21T14:56:39;96944.68;;;33.92;34.20
72118;BME280;59992;47.490;8.736;2023-08-21T14:59:30;96943.79;;;33.89;33.19
72118;BME280;59992;47.490;8.736;2023-08-21T15:02:20;96942.85;;;33.90;32.68
72118;BME280;59992;47.490;8.736;2023-08-21T15:05:10;96938.33;;;33.94;33.73